createdAt,value
2023-02-02T00:18:59.929Z,2.35
2023-02-02T00:24:04.146Z,3.30
2023-02-02T00:28:36.388Z,2.50
2023-02-02T00:59:12.045Z,2.75
2023-02-02T01:03:40.912Z,2.78
2023-02-02T01:12:59.096Z,1.70
2023-02-02T01:26:35.691Z,3.17
2023-02-02T02:14:40.734Z,1.40
2023-02-02T02:19:31.998Z,1.58
2023-02-02T02:24:46.163Z,1.30
2023-02-02T02:35:14.682Z,1.63
2023-02-02T02:40:17.114Z,1.50
2023-02-02T03:41:51.402Z,1.00
2023-02-02T03:52:26.883Z,1.33
2023-02-02T03:56:51.742Z,1.48
2023-02-02T04:28:06.086Z,1.25
2023-02-02T04:31:31.124Z,1.50
2023-02-02T05:27:26.073Z,1.55
2023-02-02T05:41:31.663Z,1.27
2023-02-02T05:46:21.126Z,1.35
2023-02-02T05:50:57.886Z,1.58
2023-02-02T06:05:52.973Z,1.30
2023-02-02T06:11:02.463Z,1.65
2023-02-02T06:16:16.593Z,1.50
2023-02-02T06:20:53.859Z,2.00
2023-02-02T06:24:53.744Z,1.80
2023-02-02T06:43:54.912Z,1.80
2023-02-02T06:53:39.843Z,1.63
2023-02-02T06:58:09.856Z,1.65
2023-02-02T07:02:40.325Z,1.33
2023-02-02T07:06:47.618Z,1.40
2023-02-02T07:30:34.716Z,1.95
2023-02-02T07:35:15.073Z,2.13
2023-02-02T07:39:32.284Z,2.33
2023-02-02T07:44:12.004Z,1.83
2023-02-02T07:50:31.354Z,2.88
2023-02-02T07:55:34.137Z,1.80
2023-02-02T08:04:36.454Z,1.65
2023-02-02T08:08:58.306Z,2.17
2023-02-02T08:13:44.791Z,1.85
2023-02-02T08:22:53.636Z,1.23
2023-02-02T08:36:38.314Z,1.75
2023-02-02T08:46:06.977Z,1.67
2023-02-02T08:50:52.620Z,2.45
2023-02-02T09:10:37.934Z,2.20
2023-02-02T09:20:20.623Z,2.08
2023-02-02T09:24:53.034Z,1.27
2023-02-02T09:29:09.198Z,1.90
2023-02-02T09:33:37.424Z,3.05
2023-02-02T12:34:45.244Z,1.75
2023-02-02T13:09:37.616Z,1.55
2023-02-02T13:13:42.487Z,2.13
2023-02-02T13:18:30.315Z,2.08
2023-02-02T13:22:43.027Z,2.55
2023-02-02T13:26:48.910Z,2.25
2023-02-02T13:31:04.652Z,2.72
2023-02-02T13:35:31.725Z,2.30
2023-02-02T13:39:39.398Z,1.92
2023-02-02T13:48:05.955Z,1.80
2023-02-02T14:02:58.299Z,2.80
2023-02-02T14:08:18.171Z,3.15
2023-02-02T14:13:32.826Z,2.42
2023-02-02T14:27:26.249Z,2.83
2023-02-02T14:31:45.501Z,2.95
2023-02-02T14:36:01.078Z,2.15
2023-02-02T14:40:15.832Z,2.45
2023-02-02T14:44:25.821Z,2.28
2023-02-02T14:48:34.588Z,1.65
2023-02-02T14:52:57.073Z,2.97
2023-02-02T14:57:04.261Z,2.33
2023-02-02T15:01:32.099Z,3.22
2023-02-02T15:05:49.952Z,3.42
2023-02-02T15:09:59.337Z,3.47
2023-02-02T15:14:11.966Z,1.70
2023-02-02T15:18:18.543Z,2.15
2023-02-02T15:23:22.032Z,2.03
2023-02-02T15:27:25.274Z,1.95
2023-02-02T15:31:35.471Z,2.08
2023-02-02T15:35:38.331Z,2.25
2023-02-02T15:39:42.758Z,2.25
2023-02-02T15:43:44.659Z,1.67
2023-02-02T15:54:19.061Z,2.53
2023-02-02T15:59:50.835Z,1.98
2023-02-02T16:05:51.483Z,3.00
2023-02-02T16:14:37.524Z,2.05
2023-02-02T16:28:17.517Z,2.55
2023-02-02T16:32:37.517Z,2.40
2023-02-02T16:36:39.076Z,2.28
2023-02-02T16:40:43.958Z,2.60
2023-02-02T16:44:45.509Z,1.92
2023-02-02T16:48:59.194Z,1.83
2023-02-02T16:53:05.103Z,1.70
2023-02-02T16:57:08.000Z,2.33
2023-02-02T17:01:16.249Z,1.73
2023-02-02T17:05:23.973Z,1.95
2023-02-02T17:09:42.135Z,2.30
2023-02-02T17:13:43.906Z,2.35
2023-02-02T17:17:50.823Z,1.80
2023-02-02T17:21:52.419Z,1.77
2023-02-02T17:25:56.897Z,2.95
2023-02-02T17:30:02.700Z,2.35
2023-02-02T17:34:11.774Z,2.55
2023-02-02T17:38:13.445Z,2.70
2023-02-02T17:42:27.912Z,1.83
2023-02-02T17:46:30.977Z,1.50
2023-02-02T17:50:33.927Z,1.85
2023-02-02T17:54:35.784Z,3.60
2023-02-02T17:58:37.282Z,2.60
2023-02-02T18:02:39.004Z,2.55
2023-02-02T18:06:40.765Z,2.33
2023-02-02T18:10:43.164Z,2.28
2023-02-02T18:14:44.782Z,1.50
2023-02-02T18:18:46.452Z,1.58
2023-02-02T18:22:48.787Z,1.45
2023-02-02T18:26:50.270Z,2.35
2023-02-02T18:30:51.962Z,1.45
2023-02-02T18:34:55.902Z,1.40
2023-02-02T18:38:58.093Z,1.92
2023-02-02T18:42:59.577Z,1.20
2023-02-02T18:47:01.548Z,1.20
2023-02-02T18:51:15.898Z,1.30
2023-02-02T18:55:26.192Z,1.05
2023-02-02T18:59:34.720Z,1.20
2023-02-02T19:03:36.859Z,0.90
2023-02-02T19:08:00.757Z,1.50
2023-02-02T19:12:02.464Z,1.48
2023-02-02T19:16:08.889Z,1.10
2023-02-02T19:20:21.708Z,1.17
2023-02-02T19:24:26.925Z,1.40
2023-02-02T19:28:30.879Z,1.38
2023-02-02T19:32:34.236Z,1.10
2023-02-02T19:36:36.518Z,1.58
2023-02-02T19:40:40.713Z,1.20
2023-02-02T19:44:42.294Z,1.02
2023-02-02T19:48:43.974Z,1.20
2023-02-02T19:52:47.059Z,1.38
2023-02-02T19:56:50.201Z,1.25
2023-02-02T20:00:53.890Z,1.10
2023-02-02T20:05:02.593Z,1.00
2023-02-02T20:09:11.440Z,0.82
2023-02-02T20:13:23.322Z,1.05
2023-02-02T20:17:32.773Z,1.15
2023-02-02T20:21:37.203Z,0.95
2023-02-02T20:25:38.833Z,1.35
2023-02-02T20:29:42.384Z,1.38
2023-02-02T20:33:51.000Z,1.65
2023-02-02T20:37:52.943Z,1.00
2023-02-02T20:41:56.564Z,0.90
2023-02-02T20:45:58.075Z,1.38
2023-02-02T20:50:12.123Z,1.10
2023-02-02T20:54:16.924Z,0.98
2023-02-02T20:58:21.897Z,1.08
2023-02-02T21:08:42.059Z,1.48
2023-02-02T21:14:01.682Z,1.17
2023-02-02T21:18:03.644Z,1.42
2023-02-02T21:22:10.340Z,1.00
2023-02-02T21:26:12.844Z,1.83
2023-02-02T21:30:14.400Z,1.20
2023-02-02T21:34:17.730Z,1.05
2023-02-02T21:38:19.233Z,1.10
2023-02-02T21:42:22.168Z,1.30
2023-02-02T21:46:35.378Z,0.90
2023-02-02T21:50:42.906Z,1.45
2023-02-02T21:54:52.868Z,1.30
2023-02-02T21:59:01.396Z,1.10
2023-02-02T22:03:34.085Z,1.02
2023-02-02T22:07:43.511Z,0.98
2023-02-02T22:12:13.994Z,1.13
2023-02-02T22:20:53.362Z,2.00
2023-02-02T22:25:18.197Z,1.65
2023-02-02T22:29:21.756Z,1.52
2023-02-02T22:33:26.430Z,1.35
2023-02-02T22:37:27.981Z,1.73
2023-02-02T22:41:29.552Z,1.50
2023-02-02T22:45:31.524Z,1.80
2023-02-02T22:49:33.084Z,1.23
2023-02-02T22:53:34.633Z,1.38
2023-02-02T22:57:36.112Z,1.35
2023-02-02T23:01:37.513Z,1.17
2023-02-02T23:05:38.997Z,1.15
2023-02-02T23:09:40.452Z,1.35
2023-02-02T23:13:41.892Z,1.48
2023-02-02T23:17:43.327Z,1.27
2023-02-02T23:21:44.725Z,0.82
2023-02-02T23:25:46.161Z,1.20
2023-02-02T23:29:48.199Z,1.27
2023-02-02T23:33:49.603Z,1.10
2023-02-02T23:37:51.089Z,1.30
2023-02-02T23:41:52.485Z,1.48
2023-02-02T23:45:54.435Z,0.73
2023-02-02T23:49:56.094Z,1.15
2023-02-02T23:53:57.789Z,1.00
2023-02-02T23:57:59.212Z,1.00
